Terminal Aerodrome Forecast
Issued by NWS Cleveland, OH

Home | Current Version | Previous Version | Graphics & Text | Print | Product List | Glossary On
Versions: 1 2 3 4 5 6 7 8 9 10 11 12 13 14 15 16 17 18 19 20 21 22 23 24 25
000
FTUS41 KCLE 310200 AAA
TAFMFD
TAF AMD
KMFD 310243Z 3103/3124 21012G20KT P6SM VCSH SCT050 BKN120
     FM310900 23008KT 4SM -SHRA BR OVC020
     FM311600 21010KT P6SM VCSH BKN025=

USA.gov is the U.S. government's official web portal to all federal, state and local government web resources and services.